Time;durP1;ratioP1;P1;durP2;ratioP2;P2;SDS_P1;SDS_P2;PMS_P1;PMS_P2;Temp;Humidity;BMP_temperature;BMP_pressure;BME280_temperature;BME280_humidity;BME280_pressure;Samples;Min_cycle;Max_cycle;Signal;HPM_P1;HPM_P2
2023/01/25 00:01:57;;;;;;;;;;;;;;;7.99;46.46;103891.63;6240396;23;20213;-85
2023/01/25 00:04:22;;;;;;;;;;;;;;;7.98;46.38;103888.13;6240513;22;19908;-85
2023/01/25 00:06:48;;;;;;;;;;;;;;;7.98;46.45;103884.63;6240275;23;19915;-86
2023/01/25 00:09:14;;;;;;;;;;;;;;;7.96;46.59;103897.28;6238874;23;20292;-85
2023/01/25 00:11:40;;;;;;;;;;;;;;;7.93;46.42;103887.75;6238969;23;20426;-85
2023/01/25 00:14:05;;;;;;;;;;;;;;;7.93;46.36;103879.75;6240376;22;19907;-85
2023/01/25 00:16:31;;;;;;;;;;;;;;;7.94;46.13;103878.75;6239682;23;19994;-85
2023/01/25 00:18:56;;;;;;;;;;;;;;;7.96;46.65;103881.28;6239400;23;20001;-85
2023/01/25 00:21:23;;;;;;;;;;;;;;;7.97;46.23;103881.13;6239615;23;19942;-85
2023/01/25 00:23:49;;;;;;;;;;;;;;;7.99;46.11;103884.47;6238866;22;19922;-85
2023/01/25 00:26:15;;;;;;;;;;;;;;;8.01;46.16;103877.13;6240459;23;20306;-85
2023/01/25 00:28:40;;;;;;;;;;;;;;;8.00;46.31;103867.44;6239990;23;20251;-85
2023/01/25 00:31:06;;;;;;;;;;;;;;;8.02;46.33;103862.78;6240420;23;20025;-85
2023/01/25 00:33:40;;;;;;;;;;;;;;;8.04;46.09;103868.81;6238855;22;19914;-85
2023/01/25 00:36:24;;;;;;;;;;;;;;;8.08;46.10;103872.03;6240350;23;19908;-86
2023/01/25 00:38:52;;;;;;;;;;;;;;;8.02;45.96;103862.78;6239040;23;19950;-85
2023/01/25 00:41:17;;;;;;;;;;;;;;;8.00;46.36;103862.13;6240690;23;20303;-85
2023/01/25 00:43:42;;;;;;;;;;;;;;;7.98;46.02;103863.25;6238482;22;19922;-85
2023/01/25 00:46:08;;;;;;;;;;;;;;;7.97;46.40;103859.75;6240172;23;20336;-85
2023/01/25 00:48:33;;;;;;;;;;;;;;;8.01;46.35;103858.44;6239691;23;20102;-85
2023/01/25 00:51:00;;;;;;;;;;;;;;;8.05;45.71;103856.28;6240305;23;19908;-85
2023/01/25 00:53:25;;;;;;;;;;;;;;;7.98;46.05;103858.75;6239769;22;19918;-85
2023/01/25 00:55:51;;;;;;;;;;;;;;;8.00;46.04;103859.44;6238592;23;19911;-85
2023/01/25 00:58:16;;;;;;;;;;;;;;;8.01;46.05;103852.25;6239530;23;19907;-85
2023/01/25 01:00:42;;;;;;;;;;;;;;;8.05;45.82;103848.28;6239234;23;19914;-85
2023/01/25 01:03:07;;;;;;;;;;;;;;;8.05;46.17;103857.13;6239737;22;19918;-85
2023/01/25 01:05:35;;;;;;;;;;;;;;;8.05;45.83;103853.63;6238367;23;19986;-85
2023/01/25 01:08:00;;;;;;;;;;;;;;;8.05;45.80;103849.13;6238289;23;19968;-85
2023/01/25 01:10:25;;;;;;;;;;;;;;;8.06;45.90;103849.97;6240353;23;19914;-85
2023/01/25 01:12:51;;;;;;;;;;;;;;;8.08;46.14;103848.84;6239353;22;19918;-85
2023/01/25 01:15:16;;;;;;;;;;;;;;;8.08;46.17;103845.34;6239985;23;19914;-85
2023/01/25 01:17:41;;;;;;;;;;;;;;;8.12;45.76;103846.69;6236908;23;20006;-85
2023/01/25 01:20:07;;;;;;;;;;;;;;;8.14;45.78;103850.03;6213490;23;20274;-85
2023/01/25 01:22:32;;;;;;;;;;;;;;;8.14;45.56;103844.69;6239347;23;19907;-85
2023/01/25 01:24:58;;;;;;;;;;;;;;;8.13;45.71;103851.88;6238485;22;19912;-85
2023/01/25 01:27:23;;;;;;;;;;;;;;;8.16;45.96;103850.72;6238084;23;19922;-85
2023/01/25 01:29:49;;;;;;;;;;;;;;;8.15;45.47;103849.88;6238585;23;19973;-85
2023/01/25 01:32:14;;;;;;;;;;;;;;;8.18;45.71;103844.22;6240092;23;20290;-85
2023/01/25 01:34:39;;;;;;;;;;;;;;;8.16;45.45;103840.88;6212247;23;19908;-85
2023/01/25 01:37:05;;;;;;;;;;;;;;;8.17;45.46;103845.22;6239302;23;19965;-85
2023/01/25 01:39:30;;;;;;;;;;;;;;;8.12;45.20;103839.50;6238413;23;19927;-85
2023/01/25 01:41:55;;;;;;;;;;;;;;;8.07;45.69;103825.78;6239348;23;19942;-85
2023/01/25 01:44:40;;;;;;;;;;;;;;;8.08;45.57;103822.13;6239793;22;19918;-85
2023/01/25 01:47:11;;;;;;;;;;;;;;;8.11;45.53;103819.16;6239119;23;19912;-85
2023/01/25 01:49:36;;;;;;;;;;;;;;;8.14;45.74;103824.16;6238631;23;19973;-85
2023/01/25 01:52:04;;;;;;;;;;;;;;;8.12;45.63;103818.16;6211346;23;20287;-85
2023/01/25 01:54:29;;;;;;;;;;;;;;;8.11;45.59;103815.63;6212928;23;19957;-85
2023/01/25 01:56:59;;;;;;;;;;;;;;;8.10;45.63;103813.97;6239250;23;19915;-85
2023/01/25 01:59:27;;;;;;;;;;;;;;;8.10;45.41;103817.47;6239407;23;19997;-85
2023/01/25 02:01:52;;;;;;;;;;;;;;;8.12;45.64;103815.47;6237363;23;19915;-85
2023/01/25 02:04:19;;;;;;;;;;;;;;;8.12;45.15;103809.31;6211978;23;19974;-85
2023/01/25 02:06:47;;;;;;;;;;;;;;;8.11;45.24;103816.47;6238977;23;19922;-85
2023/01/25 02:09:14;;;;;;;;;;;;;;;8.09;45.39;103815.78;6238897;23;19970;-85
2023/01/25 02:11:40;;;;;;;;;;;;;;;8.06;45.23;103809.91;6238457;23;19930;-85
2023/01/25 02:14:06;;;;;;;;;;;;;;;8.03;45.36;103811.06;6238719;22;20360;-84
2023/01/25 02:16:31;;;;;;;;;;;;;;;8.05;45.20;103814.41;6239322;23;20328;-85
2023/01/25 02:19:00;;;;;;;;;;;;;;;8.07;45.40;103809.75;6239031;23;19907;-85
2023/01/25 02:21:29;;;;;;;;;;;;;;;8.08;45.25;103802.59;6239647;23;20221;-84
2023/01/25 02:23:54;;;;;;;;;;;;;;;8.05;45.47;103809.06;6237191;22;19919;-85
2023/01/25 02:26:20;;;;;;;;;;;;;;;8.08;45.58;103798.09;6239354;23;19912;-86
2023/01/25 02:28:49;;;;;;;;;;;;;;;8.07;45.35;103796.41;6238645;23;19915;-85
2023/01/25 02:31:15;;;;;;;;;;;;;;;8.13;45.29;103801.13;6240224;23;19916;-85
2023/01/25 02:33:41;;;;;;;;;;;;;;;8.05;45.00;103790.38;6210893;23;19977;-86
2023/01/25 02:36:06;;;;;;;;;;;;;;;8.03;45.38;103794.19;6237465;23;19963;-85
2023/01/25 02:38:36;;;;;;;;;;;;;;;8.01;45.59;103789.03;6212319;23;19908;-86
2023/01/25 02:41:22;;;;;;;;;;;;;;;8.04;45.66;103788.69;6238862;23;19929;-85
2023/01/25 02:43:47;;;;;;;;;;;;;;;8.02;45.57;103793.38;6217830;22;19908;-85
2023/01/25 02:46:14;;;;;;;;;;;;;;;7.99;45.31;103796.34;6238026;23;20267;-85
2023/01/25 02:48:40;;;;;;;;;;;;;;;7.98;45.63;103785.84;6238386;23;19907;-85
2023/01/25 02:51:06;;;;;;;;;;;;;;;7.97;45.69;103786.81;6238652;23;20374;-85
2023/01/25 02:53:31;;;;;;;;;;;;;;;7.95;45.53;103783.47;6238170;22;19907;-85
2023/01/25 02:55:57;;;;;;;;;;;;;;;7.95;45.66;103781.66;6237975;23;19934;-86
2023/01/25 02:58:22;;;;;;;;;;;;;;;7.95;45.71;103778.13;6210867;23;19954;-85
2023/01/25 03:00:47;;;;;;;;;;;;;;;7.96;45.48;103777.97;6238759;23;19918;-85
2023/01/25 03:03:13;;;;;;;;;;;;;;;7.96;45.45;103777.16;6237698;22;19915;-86
2023/01/25 03:05:38;;;;;;;;;;;;;;;7.95;45.61;103773.63;6238491;23;19912;-86
2023/01/25 03:08:04;;;;;;;;;;;;;;;7.95;45.59;103768.31;6237073;23;19947;-85
2023/01/25 03:10:29;;;;;;;;;;;;;;;7.96;45.55;103764.63;6238222;23;19907;-85
2023/01/25 03:12:54;;;;;;;;;;;;;;;7.97;45.93;103757.47;6237298;22;20124;-85
2023/01/25 03:15:20;;;;;;;;;;;;;;;8.01;45.49;103756.97;6239239;23;19907;-85
2023/01/25 03:17:45;;;;;;;;;;;;;;;8.01;45.83;103742.78;6237913;23;19907;-85
2023/01/25 03:20:10;;;;;;;;;;;;;;;8.02;45.65;103745.31;6209613;23;19912;-85
2023/01/25 03:22:36;;;;;;;;;;;;;;;8.00;45.36;103736.63;6239107;23;19918;-85
2023/01/25 03:25:01;;;;;;;;;;;;;;;8.00;45.29;103739.28;6237764;22;19912;-86
2023/01/25 03:27:28;;;;;;;;;;;;;;;8.01;45.69;103738.28;6239436;23;19934;-86
2023/01/25 03:29:53;;;;;;;;;;;;;;;8.02;45.05;103739.97;6237146;23;20261;-86
2023/01/25 03:32:19;;;;;;;;;;;;;;;8.03;45.17;103741.63;6237719;23;19907;-86
2023/01/25 03:34:44;;;;;;;;;;;;;;;7.97;45.25;103734.25;6239023;22;19911;-85
2023/01/25 03:37:09;;;;;;;;;;;;;;;7.93;45.00;103724.91;6239251;23;19923;-86
2023/01/25 03:39:35;;;;;;;;;;;;;;;7.90;45.26;103719.88;6239017;23;19908;-85
2023/01/25 03:42:00;;;;;;;;;;;;;;;7.85;44.96;103716.81;6211483;23;19914;-85
2023/01/25 03:44:25;;;;;;;;;;;;;;;7.83;44.96;103714.31;6239368;22;19907;-85
2023/01/25 03:46:51;;;;;;;;;;;;;;;7.81;45.16;103715.47;6238863;23;19915;-85
2023/01/25 03:49:17;;;;;;;;;;;;;;;7.84;45.42;103712.47;6240342;23;20249;-85
2023/01/25 03:51:42;;;;;;;;;;;;;;;7.83;44.93;103708.97;6238828;23;19934;-86
2023/01/25 03:54:09;;;;;;;;;;;;;;;7.84;45.61;103709.81;6238674;22;19958;-86
2023/01/25 03:56:34;;;;;;;;;;;;;;;7.87;45.37;103704.16;6239576;23;19991;-86
2023/01/25 03:59:00;;;;;;;;;;;;;;;7.91;45.42;103697.53;6238826;23;19935;-85
2023/01/25 04:01:25;;;;;;;;;;;;;;;7.93;45.21;103687.53;6234883;23;19953;-85
2023/01/25 04:03:50;;;;;;;;;;;;;;;7.95;45.49;103684.69;6239286;22;19962;-85
2023/01/25 04:06:16;;;;;;;;;;;;;;;7.95;45.18;103687.38;6240059;23;20165;-85
2023/01/25 04:08:41;;;;;;;;;;;;;;;7.91;45.29;103686.84;6240036;23;19908;-83
2023/01/25 04:11:07;;;;;;;;;;;;;;;7.90;45.09;103679.84;6242036;23;19954;-84
2023/01/25 04:13:36;;;;;;;;;;;;;;;7.85;45.30;103679.47;6241386;22;19914;-85
2023/01/25 04:16:02;;;;;;;;;;;;;;;7.82;45.19;103683.28;6241016;23;19915;-85
2023/01/25 04:18:27;;;;;;;;;;;;;;;7.85;45.46;103685.63;6240767;23;19911;-85
2023/01/25 04:20:53;;;;;;;;;;;;;;;7.85;45.24;103684.78;6242463;23;20319;-84
2023/01/25 04:23:19;;;;;;;;;;;;;;;7.89;45.46;103680.81;6241582;22;19986;-85
2023/01/25 04:25:53;;;;;;;;;;;;;;;7.94;45.33;103677.69;6241961;23;20655;-86
2023/01/25 04:28:18;;;;;;;;;;;;;;;7.95;45.51;103682.03;6240884;23;19915;-85
2023/01/25 04:30:44;;;;;;;;;;;;;;;7.97;45.56;103683.53;6241959;23;19911;-84
2023/01/25 04:33:10;;;;;;;;;;;;;;;7.97;45.52;103672.84;6242803;22;19911;-85
2023/01/25 04:35:36;;;;;;;;;;;;;;;7.97;45.36;103670.19;6243116;23;19915;-85
2023/01/25 04:38:02;;;;;;;;;;;;;;;7.96;45.36;103667.69;6242655;23;19916;-85
2023/01/25 04:40:27;;;;;;;;;;;;;;;7.99;45.44;103662.84;6216813;23;19914;-85
2023/01/25 04:42:53;;;;;;;;;;;;;;;7.96;45.46;103663.19;6242448;22;19914;-84
2023/01/25 04:45:18;;;;;;;;;;;;;;;7.94;45.54;103662.50;6243485;23;20046;-84
2023/01/25 04:47:44;;;;;;;;;;;;;;;7.99;45.20;103654.00;6242760;23;19919;-84
2023/01/25 04:50:10;;;;;;;;;;;;;;;7.97;45.50;103650.66;6216024;23;20342;-85
2023/01/25 04:52:35;;;;;;;;;;;;;;;7.98;45.18;103647.81;6242644;23;19934;-84
2023/01/25 04:55:00;;;;;;;;;;;;;;;7.95;45.40;103647.31;6243080;22;19931;-84
2023/01/25 04:57:26;;;;;;;;;;;;;;;7.90;45.28;103642.47;6242390;23;19965;-85
2023/01/25 04:59:51;;;;;;;;;;;;;;;7.95;45.45;103640.16;6241682;23;20230;-84
2023/01/25 05:02:16;;;;;;;;;;;;;;;7.93;45.01;103633.28;6242069;23;19908;-84
2023/01/25 05:04:42;;;;;;;;;;;;;;;7.93;45.21;103633.28;6242048;22;19976;-85
2023/01/25 05:07:07;;;;;;;;;;;;;;;7.91;45.23;103630.78;6241858;23;20350;-85
2023/01/25 05:09:32;;;;;;;;;;;;;;;7.94;45.20;103627.78;6241675;23;19975;-85
2023/01/25 05:11:58;;;;;;;;;;;;;;;7.94;45.17;103632.28;6241751;23;19911;-84
2023/01/25 05:14:23;;;;;;;;;;;;;;;7.95;45.41;103631.31;6242172;22;19908;-84
2023/01/25 05:16:49;;;;;;;;;;;;;;;7.96;45.25;103628.47;6242321;23;20267;-85
2023/01/25 05:19:14;;;;;;;;;;;;;;;7.95;45.29;103632.13;6241632;23;19912;-85
2023/01/25 05:21:57;;;;;;;;;;;;;;;7.93;45.10;103626.13;6241719;23;19908;-84
2023/01/25 05:24:29;;;;;;;;;;;;;;;7.87;45.14;103616.06;6241673;22;19912;-83
2023/01/25 05:27:04;;;;;;;;;;;;;;;7.82;45.27;103613.03;6243185;23;19985;-85
2023/01/25 05:29:35;;;;;;;;;;;;;;;7.79;44.87;103614.22;6243143;23;19907;-84
2023/01/25 05:32:01;;;;;;;;;;;;;;;7.68;45.08;103609.13;6243279;23;19908;-84
2023/01/25 05:34:26;;;;;;;;;;;;;;;7.68;45.41;103593.13;6242816;22;19914;-86
2023/01/25 05:36:52;;;;;;;;;;;;;;;7.69;45.25;103601.97;6243122;23;19908;-84
2023/01/25 05:39:17;;;;;;;;;;;;;;;7.69;45.03;103599.28;6241845;23;19981;-84
2023/01/25 05:41:43;;;;;;;;;;;;;;;7.66;45.34;103602.28;6241726;23;19931;-84
2023/01/25 05:44:08;;;;;;;;;;;;;;;7.65;45.41;103605.94;6241758;22;19955;-84
2023/01/25 05:46:33;;;;;;;;;;;;;;;7.67;45.52;103609.28;6241067;23;20347;-84
2023/01/25 05:48:59;;;;;;;;;;;;;;;7.71;45.46;103607.97;6240189;23;20525;-84
2023/01/25 05:51:24;;;;;;;;;;;;;;;7.70;45.52;103603.63;6240692;23;19911;-84
2023/01/25 05:53:50;;;;;;;;;;;;;;;7.73;44.99;103598.00;6240710;22;19908;-84
2023/01/25 05:56:15;;;;;;;;;;;;;;;7.71;45.06;103592.81;6239755;23;20328;-84
2023/01/25 05:58:40;;;;;;;;;;;;;;;7.71;45.20;103599.97;6240721;23;19907;-85
2023/01/25 06:01:06;;;;;;;;;;;;;;;7.69;45.19;103596.63;6241828;23;19911;-86
2023/01/25 06:03:32;;;;;;;;;;;;;;;7.68;45.18;103592.28;6214094;23;19961;-85
2023/01/25 06:06:00;;;;;;;;;;;;;;;7.68;45.28;103587.78;6243218;23;19907;-84
2023/01/25 06:08:26;;;;;;;;;;;;;;;7.62;45.43;103587.59;6242204;23;19960;-85
2023/01/25 06:10:51;;;;;;;;;;;;;;;7.64;45.14;103586.44;6243051;23;20324;-85
2023/01/25 06:13:16;;;;;;;;;;;;;;;7.61;45.38;103585.94;6242805;22;20299;-86
2023/01/25 06:15:42;;;;;;;;;;;;;;;7.58;45.92;103587.91;6242311;23;19938;-86
2023/01/25 06:18:07;;;;;;;;;;;;;;;7.63;45.59;103584.75;6241969;23;20603;-85
2023/01/25 06:20:33;;;;;;;;;;;;;;;7.69;45.75;103583.28;6242245;23;19935;-84
2023/01/25 06:22:59;;;;;;;;;;;;;;;7.72;45.21;103585.63;6241521;22;19939;-84
2023/01/25 06:25:24;;;;;;;;;;;;;;;7.64;45.35;103578.44;6242827;23;19917;-86
2023/01/25 06:27:49;;;;;;;;;;;;;;;7.63;45.46;103581.25;6241300;23;19973;-84
2023/01/25 06:30:15;;;;;;;;;;;;;;;7.63;45.39;103581.25;6241959;23;19973;-84
2023/01/25 06:32:40;;;;;;;;;;;;;;;7.66;45.65;103584.44;6242925;23;19907;-85
2023/01/25 06:35:06;;;;;;;;;;;;;;;7.69;45.40;103585.94;6242141;22;19908;-84
2023/01/25 06:37:32;;;;;;;;;;;;;;;7.73;45.23;103590.00;6215418;23;19912;-85
2023/01/25 06:39:57;;;;;;;;;;;;;;;7.65;45.48;103580.09;6242354;23;19930;-84
2023/01/25 06:42:23;;;;;;;;;;;;;;;7.64;45.44;103583.78;6242264;23;19985;-86
2023/01/25 06:44:49;;;;;;;;;;;;;;;7.64;45.68;103581.09;6240707;22;19912;-85
2023/01/25 06:47:14;;;;;;;;;;;;;;;7.65;45.48;103577.44;6241725;23;19922;-85
2023/01/25 06:49:39;;;;;;;;;;;;;;;7.69;45.67;103572.59;6242752;23;19914;-85
2023/01/25 06:52:05;;;;;;;;;;;;;;;7.71;45.24;103566.13;6241246;23;20224;-86
2023/01/25 06:54:30;;;;;;;;;;;;;;;7.62;45.21;103575.09;6241983;22;19908;-86
2023/01/25 06:56:55;;;;;;;;;;;;;;;7.58;45.38;103566.56;6242317;23;19907;-84
2023/01/25 06:59:21;;;;;;;;;;;;;;;7.60;45.16;103568.25;6241798;23;19907;-84
2023/01/25 07:01:46;;;;;;;;;;;;;;;7.62;45.53;103558.25;6242198;23;19935;-86
2023/01/25 07:04:11;;;;;;;;;;;;;;;7.53;45.48;103560.84;6242212;22;19907;-84
2023/01/25 07:06:37;;;;;;;;;;;;;;;7.55;45.50;103563.41;6242761;23;19911;-84
2023/01/25 07:09:03;;;;;;;;;;;;;;;7.55;45.48;103568.72;6242034;23;19943;-85
2023/01/25 07:11:28;;;;;;;;;;;;;;;7.57;45.38;103567.56;6242540;23;20244;-86
2023/01/25 07:13:54;;;;;;;;;;;;;;;7.56;45.38;103555.22;6242366;22;19918;-84
2023/01/25 07:16:20;;;;;;;;;;;;;;;7.58;45.40;103555.91;6215466;23;20017;-84
2023/01/25 07:18:45;;;;;;;;;;;;;;;7.57;45.60;103548.91;6241600;23;19974;-85
2023/01/25 07:21:11;;;;;;;;;;;;;;;7.62;45.55;103545.75;6242258;23;19908;-85
2023/01/25 07:23:37;;;;;;;;;;;;;;;7.66;45.88;103547.09;6241795;22;19978;-85
2023/01/25 07:26:03;;;;;;;;;;;;;;;7.70;45.91;103542.25;6241827;23;19918;-84
2023/01/25 07:28:30;;;;;;;;;;;;;;;7.71;45.91;103541.25;6241351;23;19958;-84
2023/01/25 07:30:55;;;;;;;;;;;;;;;7.73;45.54;103533.94;6242386;23;19918;-85
2023/01/25 07:33:21;;;;;;;;;;;;;;;7.74;45.99;103532.94;6214945;23;19957;-84
2023/01/25 07:35:49;;;;;;;;;;;;;;;7.72;45.64;103526.91;6241738;23;19965;-84
2023/01/25 07:38:15;;;;;;;;;;;;;;;7.71;46.00;103531.41;6241394;23;19911;-84
2023/01/25 07:40:40;;;;;;;;;;;;;;;7.72;45.58;103530.44;6242443;23;19973;-85
2023/01/25 07:43:06;;;;;;;;;;;;;;;7.69;45.94;103524.56;6242057;22;19915;-84
2023/01/25 07:45:31;;;;;;;;;;;;;;;7.66;45.87;103519.56;6242145;23;19915;-85
2023/01/25 07:47:57;;;;;;;;;;;;;;;7.69;45.81;103513.91;6241708;23;19911;-84
2023/01/25 07:50:23;;;;;;;;;;;;;;;7.69;45.54;103512.06;6242298;23;19907;-84
2023/01/25 07:52:48;;;;;;;;;;;;;;;7.69;45.36;103503.22;6241280;23;19908;-85
2023/01/25 07:55:14;;;;;;;;;;;;;;;7.63;45.36;103504.72;6241629;22;20407;-84
2023/01/25 07:57:39;;;;;;;;;;;;;;;7.59;45.71;103508.72;6241722;23;19911;-84
2023/01/25 08:00:06;;;;;;;;;;;;;;;7.58;45.46;103502.53;6240891;23;20252;-85
2023/01/25 08:02:32;;;;;;;;;;;;;;;7.56;45.76;103504.53;6241294;23;19995;-85
2023/01/25 08:04:57;;;;;;;;;;;;;;;7.53;45.39;103496.81;6241747;22;19938;-84
2023/01/25 08:07:22;;;;;;;;;;;;;;;7.53;45.78;103494.16;6242631;23;19916;-85
2023/01/25 08:09:48;;;;;;;;;;;;;;;7.53;45.58;103488.81;6243945;23;19908;-85
2023/01/25 08:12:13;;;;;;;;;;;;;;;7.49;45.78;103487.47;6243609;23;20350;-85
2023/01/25 08:14:38;;;;;;;;;;;;;;;7.49;45.44;103486.66;6243972;22;19907;-85
2023/01/25 08:17:04;;;;;;;;;;;;;;;7.47;45.46;103489.47;6217122;23;20375;-84
2023/01/25 08:19:29;;;;;;;;;;;;;;;7.46;45.79;103489.63;6243254;23;20328;-84
2023/01/25 08:21:54;;;;;;;;;;;;;;;7.46;45.82;103487.81;6243984;23;19912;-84
2023/01/25 08:24:20;;;;;;;;;;;;;;;7.45;45.42;103480.81;6243167;22;19911;-85
2023/01/25 08:26:45;;;;;;;;;;;;;;;7.49;45.79;103483.97;6243119;23;19961;-86
2023/01/25 08:29:11;;;;;;;;;;;;;;;7.47;45.74;103485.97;6243294;23;19908;-85
2023/01/25 08:31:39;;;;;;;;;;;;;;;7.44;45.74;103486.28;6243198;23;19915;-85
2023/01/25 08:34:04;;;;;;;;;;;;;;;7.47;45.93;103481.47;6243282;22;19914;-85
2023/01/25 08:36:29;;;;;;;;;;;;;;;7.51;45.77;103477.47;6243937;23;19975;-84
2023/01/25 08:38:57;;;;;;;;;;;;;;;7.55;45.83;103476.19;6242675;23;19911;-84
2023/01/25 08:41:23;;;;;;;;;;;;;;;7.56;45.88;103477.03;6243062;23;19907;-86
2023/01/25 08:43:50;;;;;;;;;;;;;;;7.53;45.67;103480.81;6242708;22;19954;-86
2023/01/25 08:46:15;;;;;;;;;;;;;;;7.53;45.69;103478.16;6243353;23;19912;-84
2023/01/25 08:48:41;;;;;;;;;;;;;;;7.58;45.58;103481.19;6243159;23;19914;-85
2023/01/25 08:51:07;;;;;;;;;;;;;;;7.60;45.71;103481.03;6243847;23;20224;-85
2023/01/25 08:53:32;;;;;;;;;;;;;;;7.62;46.10;103472.84;6243722;22;19946;-85
2023/01/25 08:56:04;;;;;;;;;;;;;;;7.64;46.05;103473.53;6243931;23;20347;-84
2023/01/25 08:58:30;;;;;;;;;;;;;;;7.65;45.65;103475.19;6243543;23;19930;-84
2023/01/25 09:01:00;;;;;;;;;;;;;;;7.66;45.97;103482.22;6243964;23;19908;-86
2023/01/25 09:03:26;;;;;;;;;;;;;;;7.64;45.82;103473.53;6243673;22;19918;-84
2023/01/25 09:05:52;;;;;;;;;;;;;;;7.67;45.69;103481.22;6243920;23;19918;-86
2023/01/25 09:08:18;;;;;;;;;;;;;;;7.61;45.08;103479.19;6243149;23;19911;-84
2023/01/25 09:10:43;;;;;;;;;;;;;;;7.48;45.30;103482.31;6216657;23;19914;-85
2023/01/25 09:13:08;;;;;;;;;;;;;;;7.40;45.73;103477.78;6244190;22;19908;-85
2023/01/25 09:15:34;;;;;;;;;;;;;;;7.38;45.83;103477.13;6243377;23;19907;-85
2023/01/25 09:17:59;;;;;;;;;;;;;;;7.45;45.91;103477.31;6243104;23;19961;-85
2023/01/25 09:20:24;;;;;;;;;;;;;;;7.48;45.91;103482.31;6243394;23;20239;-86
2023/01/25 09:22:50;;;;;;;;;;;;;;;7.47;45.90;103486.81;6243693;23;19915;-84
2023/01/25 09:25:15;;;;;;;;;;;;;;;7.45;45.60;103480.81;6243512;22;20037;-84
2023/01/25 09:27:41;;;;;;;;;;;;;;;7.46;45.96;103468.28;6243240;23;20336;-85
2023/01/25 09:30:07;;;;;;;;;;;;;;;7.51;45.99;103465.97;6244153;23;19907;-86
2023/01/25 09:32:33;;;;;;;;;;;;;;;7.52;46.08;103465.81;6243572;23;20682;-85
2023/01/25 09:34:58;;;;;;;;;;;;;;;7.55;45.83;103464.69;6243637;22;19911;-85
2023/01/25 09:37:23;;;;;;;;;;;;;;;7.59;46.12;103466.03;6243248;23;19907;-84
2023/01/25 09:39:49;;;;;;;;;;;;;;;7.69;45.92;103468.53;6243848;23;19908;-85
2023/01/25 09:42:21;;;;;;;;;;;;;;;7.69;45.66;103463.19;6243721;23;20255;-85
2023/01/25 09:45:18;;;;;;;;;;;;;;;7.61;46.23;103460.50;6243488;22;19950;-86
2023/01/25 09:47:47;;;;;;;;;;;;;;;7.62;45.88;103459.50;6176039;23;20071;-85
2023/01/25 09:50:13;;;;;;;;;;;;;;;7.64;46.06;103449.50;6243658;23;19908;-85
2023/01/25 09:52:56;;;;;;;;;;;;;;;7.67;45.83;103447.34;6242972;23;19914;-85
2023/01/25 09:55:24;;;;;;;;;;;;;;;7.72;45.71;103447.72;6243675;23;19911;-85
2023/01/25 09:57:52;;;;;;;;;;;;;;;7.75;45.96;103441.22;6243520;23;19911;-84
2023/01/25 10:00:18;;;;;;;;;;;;;;;7.74;46.08;103436.88;6243891;23;19908;-85
2023/01/25 10:02:51;;;;;;;;;;;;;;;7.75;45.80;103430.53;6243485;23;20347;-86
2023/01/25 10:05:22;;;;;;;;;;;;;;;7.79;46.18;103423.88;6243821;23;19961;-84
2023/01/25 10:07:57;;;;;;;;;;;;;;;7.83;45.74;103417.19;6242619;23;20026;-86
2023/01/25 10:10:34;;;;;;;;;;;;;;;7.85;45.75;103415.19;6243335;23;20328;-84
2023/01/25 10:13:01;;;;;;;;;;;;;;;7.91;46.02;103414.56;6242980;22;19908;-85
2023/01/25 10:15:33;;;;;;;;;;;;;;;7.88;45.99;103422.88;6243048;23;19907;-84
2023/01/25 10:18:06;;;;;;;;;;;;;;;7.81;45.90;103414.69;6242736;23;19915;-84
2023/01/25 10:20:38;;;;;;;;;;;;;;;7.79;45.92;103414.03;6243391;23;19907;-86
2023/01/25 10:23:06;;;;;;;;;;;;;;;7.76;46.28;103413.53;6242809;22;19939;-84
2023/01/25 10:25:55;;;;;;;;;;;;;;;7.80;46.30;103407.69;6243170;23;19978;-85
2023/01/25 10:28:41;;;;;;;;;;;;;;;7.84;45.87;103398.34;6242436;23;20352;-85
2023/01/25 10:31:17;;;;;;;;;;;;;;;7.87;45.80;103384.66;6241604;23;19908;-84
2023/01/25 10:33:44;;;;;;;;;;;;;;;7.85;45.66;103375.97;6215997;23;19907;-85
2023/01/25 10:36:13;;;;;;;;;;;;;;;7.88;46.00;103386.31;6242861;23;19908;-85
2023/01/25 10:38:44;;;;;;;;;;;;;;;7.87;45.44;103375.81;6242237;23;19942;-85
2023/01/25 10:41:12;;;;;;;;;;;;;;;7.83;45.55;103367.31;6242729;23;19908;-85
2023/01/25 10:43:38;;;;;;;;;;;;;;;7.85;46.14;103367.16;6242656;22;20316;-85
2023/01/25 10:46:09;;;;;;;;;;;;;;;7.86;46.29;103366.16;6242815;23;20030;-85
2023/01/25 10:48:35;;;;;;;;;;;;;;;7.91;45.72;103361.16;6215429;23;19912;-84
2023/01/25 10:51:00;;;;;;;;;;;;;;;7.92;45.87;103357.50;6242539;23;19907;-84
2023/01/25 10:53:34;;;;;;;;;;;;;;;7.93;45.98;103355.66;6241734;22;19914;-85
2023/01/25 10:56:05;;;;;;;;;;;;;;;7.92;45.66;103343.31;6242750;23;19908;-85
2023/01/25 10:58:37;;;;;;;;;;;;;;;7.90;45.72;103340.81;6242567;23;19999;-85
2023/01/25 11:01:06;;;;;;;;;;;;;;;7.88;46.29;103337.44;6242852;23;19911;-84
2023/01/25 11:03:36;;;;;;;;;;;;;;;7.93;46.34;103340.47;6242213;22;19927;-85
2023/01/25 11:06:02;;;;;;;;;;;;;;;8.00;46.30;103330.78;6241983;23;19912;-85
2023/01/25 11:08:35;;;;;;;;;;;;;;;7.98;46.05;103331.94;6242288;23;19938;-85
2023/01/25 11:11:13;;;;;;;;;;;;;;;7.94;45.91;103326.13;6243021;23;19908;-85
2023/01/25 11:13:39;;;;;;;;;;;;;;;7.91;46.21;103321.13;6242831;22;19908;-86
2023/01/25 11:16:14;;;;;;;;;;;;;;;7.90;46.02;103314.13;6242992;23;19990;-86
2023/01/25 11:18:48;;;;;;;;;;;;;;;7.85;46.39;103305.75;6242215;23;19907;-85
2023/01/25 11:21:20;;;;;;;;;;;;;;;7.87;45.98;103303.75;6242462;23;19914;-86
2023/01/25 11:24:04;;;;;;;;;;;;;;;7.91;46.00;103309.59;6242429;22;19933;-86
2023/01/25 11:26:30;;;;;;;;;;;;;;;7.92;46.20;103303.28;6242550;23;19912;-85
2023/01/25 11:29:16;;;;;;;;;;;;;;;7.98;46.33;103279.38;6242204;23;19926;-85
2023/01/25 11:31:44;;;;;;;;;;;;;;;8.03;46.05;103281.53;6241571;23;19907;-85
2023/01/25 11:34:12;;;;;;;;;;;;;;;7.99;45.87;103274.88;6242415;22;19907;-85
2023/01/25 11:36:43;;;;;;;;;;;;;;;7.98;46.23;103279.38;6242427;23;19993;-85
2023/01/25 11:39:20;;;;;;;;;;;;;;;8.02;46.29;103272.69;6242133;23;20245;-85
2023/01/25 11:42:00;;;;;;;;;;;;;;;8.01;46.28;103267.53;6242709;23;19911;-85
2023/01/25 11:44:31;;;;;;;;;;;;;;;8.05;46.35;103252.84;6244611;22;20244;-85
2023/01/25 11:47:02;;;;;;;;;;;;;;;8.10;46.02;103254.00;6244214;23;19912;-85
2023/01/25 11:49:51;;;;;;;;;;;;;;;8.08;46.21;103253.34;6239284;23;19914;-86
2023/01/25 11:52:35;;;;;;;;;;;;;;;8.10;45.82;103255.84;6242675;23;20501;-85
2023/01/25 11:55:06;;;;;;;;;;;;;;;8.09;46.48;103248.84;6243165;22;20294;-86
2023/01/25 11:57:34;;;;;;;;;;;;;;;8.14;45.99;103236.63;6241527;23;19908;-85
2023/01/25 12:00:03;;;;;;;;;;;;;;;8.19;46.21;103234.28;6241616;23;19907;-85
2023/01/25 12:02:32;;;;;;;;;;;;;;;8.16;45.79;103244.47;6243437;23;20299;-84
2023/01/25 12:04:57;;;;;;;;;;;;;;;8.14;45.90;103236.63;6242957;22;19911;-85
2023/01/25 12:07:48;;;;;;;;;;;;;;;8.17;46.24;103230.94;6242329;23;19912;-85
2023/01/25 12:10:32;;;;;;;;;;;;;;;8.18;46.04;103229.09;6242447;23;19954;-85
2023/01/25 12:13:16;;;;;;;;;;;;;;;8.15;46.18;103216.94;6242127;22;19928;-85
2023/01/25 12:15:57;;;;;;;;;;;;;;;8.14;46.25;103212.59;6216066;23;20566;-85
2023/01/25 12:18:37;;;;;;;;;;;;;;;8.14;46.05;103209.94;6242354;23;20247;-85
2023/01/25 12:21:03;;;;;;;;;;;;;;;8.10;46.00;103207.78;6241377;23;19939;-85
2023/01/25 12:23:36;;;;;;;;;;;;;;;8.10;45.95;103203.28;6242626;22;20280;-84
2023/01/25 12:26:15;;;;;;;;;;;;;;;8.09;46.22;103195.44;6243086;23;20391;-84
2023/01/25 12:28:47;;;;;;;;;;;;;;;8.09;46.26;103188.25;6242380;23;20332;-85
2023/01/25 12:31:16;;;;;;;;;;;;;;;8.09;46.05;103188.25;6242951;23;19986;-84
2023/01/25 12:33:46;;;;;;;;;;;;;;;8.14;46.47;103185.91;6242242;22;19918;-84
2023/01/25 12:36:14;;;;;;;;;;;;;;;8.19;46.47;103183.53;6242209;23;19911;-85
2023/01/25 12:38:49;;;;;;;;;;;;;;;8.17;46.06;103172.19;6241742;23;20342;-85
2023/01/25 12:41:29;;;;;;;;;;;;;;;8.17;46.38;103166.84;6242458;23;19970;-85
2023/01/25 12:44:04;;;;;;;;;;;;;;;8.19;46.54;103159.50;6213262;23;19922;-84
2023/01/25 12:46:39;;;;;;;;;;;;;;;8.19;46.58;103158.66;6242432;23;19911;-85
2023/01/25 12:49:10;;;;;;;;;;;;;;;8.22;46.15;103155.66;6242089;23;20358;-85
2023/01/25 12:51:38;;;;;;;;;;;;;;;8.22;45.95;103154.81;6242031;23;20312;-84